Time;durP1;ratioP1;P1;durP2;ratioP2;P2;SDS_P1;SDS_P2;PMS_P1;PMS_P2;Temp;Humidity;BMP_temperature;BMP_pressure;BME280_temperature;BME280_humidity;BME280_pressure;Samples;Min_cycle;Max_cycle;Signal;HPM_P1;HPM_P2
2023/02/28 00:02:00;;;;;;;;;;;;;;;2.24;65.60;102685.34;4197671;28;20020;-66
2023/02/28 00:04:02;;;;;;;;;;;;;;;2.25;65.39;102687.94;4198036;28;20027;-66
2023/02/28 00:06:04;;;;;;;;;;;;;;;2.24;65.48;102686.25;4197680;28;20015;-65
2023/02/28 00:08:06;;;;;;;;;;;;;;;2.23;65.62;102679.16;4197324;28;20035;-65
2023/02/28 00:10:09;;;;;;;;;;;;;;;2.25;65.50;102695.09;4197660;28;20019;-66
2023/02/28 00:12:12;;;;;;;;;;;;;;;2.24;65.33;102688.91;4198078;28;20369;-65
2023/02/28 00:14:14;;;;;;;;;;;;;;;2.24;65.43;102693.34;4198217;28;20011;-65
2023/02/28 00:16:17;;;;;;;;;;;;;;;2.25;65.68;102692.44;4197150;28;20448;-65
2023/02/28 00:18:19;;;;;;;;;;;;;;;2.23;65.80;102694.31;4196545;28;20058;-66
2023/02/28 00:20:21;;;;;;;;;;;;;;;2.21;65.91;102702.38;4197030;28;20023;-65
2023/02/28 00:22:23;;;;;;;;;;;;;;;2.20;65.96;102697.97;4198399;28;20027;-65
2023/02/28 00:24:25;;;;;;;;;;;;;;;2.21;66.19;102698.84;4197148;28;20019;-65
2023/02/28 00:26:27;;;;;;;;;;;;;;;2.22;66.28;102697.91;4196715;28;20011;-65
2023/02/28 00:28:30;;;;;;;;;;;;;;;2.22;66.14;102695.25;4195595;28;20034;-65
2023/02/28 00:30:34;;;;;;;;;;;;;;;2.21;65.60;102696.16;4195972;28;20015;-64
2023/02/28 00:32:40;;;;;;;;;;;;;;;2.17;65.56;102696.31;4197576;28;20015;-64
2023/02/28 00:34:42;;;;;;;;;;;;;;;2.17;65.75;102693.66;4192256;28;20000;-65
2023/02/28 00:36:46;;;;;;;;;;;;;;;2.17;65.92;102691.00;4196199;28;20023;-66
2023/02/28 00:38:48;;;;;;;;;;;;;;;2.19;65.86;102692.72;4196687;28;20023;-65
2023/02/28 00:40:50;;;;;;;;;;;;;;;2.18;65.95;102691.88;4204672;28;20050;-64
2023/02/28 00:42:52;;;;;;;;;;;;;;;2.19;65.78;102690.91;4195999;28;20446;-65
2023/02/28 00:44:55;;;;;;;;;;;;;;;2.18;65.99;102694.53;4197389;28;20447;-65
2023/02/28 00:46:57;;;;;;;;;;;;;;;2.17;65.80;102693.66;4188411;28;20019;-65
2023/02/28 00:49:00;;;;;;;;;;;;;;;2.17;65.92;102699.00;4196144;28;20015;-65
2023/02/28 00:51:02;;;;;;;;;;;;;;;2.18;66.18;102694.53;4195088;28;20019;-66
2023/02/28 00:53:04;;;;;;;;;;;;;;;2.19;66.14;102703.38;4197323;28;20027;-65
2023/02/28 00:55:06;;;;;;;;;;;;;;;2.19;66.35;102700.72;4188249;28;20011;-65
2023/02/28 00:57:08;;;;;;;;;;;;;;;2.17;66.26;102696.31;4197292;28;20027;-65
2023/02/28 00:59:10;;;;;;;;;;;;;;;2.19;66.23;102698.06;4203513;28;20363;-66
2023/02/28 01:01:15;;;;;;;;;;;;;;;2.21;65.97;102698.84;4195289;28;20011;-65
2023/02/28 01:03:17;;;;;;;;;;;;;;;2.19;65.94;102701.56;4197072;28;20019;-65
2023/02/28 01:05:19;;;;;;;;;;;;;;;2.17;65.95;102703.47;4196990;28;20007;-65
2023/02/28 01:07:21;;;;;;;;;;;;;;;2.16;66.11;102704.38;4196683;28;20027;-65
2023/02/28 01:09:23;;;;;;;;;;;;;;;2.17;66.18;102706.13;4204063;28;20836;-65
2023/02/28 01:11:25;;;;;;;;;;;;;;;2.17;66.40;102699.00;4211720;28;20509;-65
2023/02/28 01:13:28;;;;;;;;;;;;;;;2.17;66.24;102693.66;4197080;28;20016;-65
2023/02/28 01:15:31;;;;;;;;;;;;;;;2.18;66.29;102689.22;4204121;28;20019;-65
2023/02/28 01:17:35;;;;;;;;;;;;;;;2.14;66.01;102691.13;4191990;28;19974;-66
2023/02/28 01:19:37;;;;;;;;;;;;;;;2.14;66.42;102692.94;4195183;28;20024;-65
2023/02/28 01:21:39;;;;;;;;;;;;;;;2.13;66.04;102694.75;4193982;28;20015;-66
2023/02/28 01:23:41;;;;;;;;;;;;;;;2.10;66.09;102691.34;4202957;28;20364;-65
2023/02/28 01:25:44;;;;;;;;;;;;;;;2.09;66.63;102692.31;4194477;28;20628;-65
2023/02/28 01:27:46;;;;;;;;;;;;;;;2.11;66.46;102690.44;4203304;28;20039;-65
2023/02/28 01:29:48;;;;;;;;;;;;;;;2.10;66.55;102689.56;4196748;28;20460;-65
2023/02/28 01:31:51;;;;;;;;;;;;;;;2.10;66.40;102692.25;4203476;28;20026;-66
2023/02/28 01:33:55;;;;;;;;;;;;;;;2.08;66.38;102688.75;4195678;28;20041;-65
2023/02/28 01:35:59;;;;;;;;;;;;;;;2.06;66.33;102682.66;4196542;28;20990;-65
2023/02/28 01:38:02;;;;;;;;;;;;;;;2.05;66.20;102682.72;4204357;28;20690;-65
2023/02/28 01:40:04;;;;;;;;;;;;;;;1.98;66.29;102682.16;4192365;28;20369;-65
2023/02/28 01:42:06;;;;;;;;;;;;;;;1.94;66.60;102681.47;4194344;28;20028;-65
2023/02/28 01:44:24;;;;;;;;;;;;;;;1.94;66.77;102680.56;4187705;28;20020;-65
2023/02/28 01:46:26;;;;;;;;;;;;;;;1.95;67.05;102680.50;4201894;28;20019;-65
2023/02/28 01:48:30;;;;;;;;;;;;;;;1.96;66.90;102681.38;4194837;28;20015;-65
2023/02/28 01:50:34;;;;;;;;;;;;;;;1.96;66.41;102684.06;4195406;28;20015;-65
2023/02/28 01:52:36;;;;;;;;;;;;;;;1.96;66.29;102678.72;4196580;28;20798;-65
2023/02/28 01:54:38;;;;;;;;;;;;;;;1.94;66.36;102683.22;4195419;28;20358;-65
2023/02/28 01:56:42;;;;;;;;;;;;;;;1.92;66.58;102679.78;4186845;28;20449;-65
2023/02/28 01:58:44;;;;;;;;;;;;;;;1.89;66.65;102686.13;4203469;28;20441;-65
2023/02/28 02:00:46;;;;;;;;;;;;;;;1.85;66.78;102689.00;4186524;28;20327;-65
2023/02/28 02:02:53;;;;;;;;;;;;;;;1.80;67.02;102684.78;4195355;28;20016;-66
2023/02/28 02:05:01;;;;;;;;;;;;;;;1.77;67.21;102684.03;4187012;28;20023;-66
2023/02/28 02:07:05;;;;;;;;;;;;;;;1.75;67.44;102680.56;4196293;28;19996;-66
2023/02/28 02:09:08;;;;;;;;;;;;;;;1.73;67.42;102674.47;4193518;28;19991;-66
2023/02/28 02:11:10;;;;;;;;;;;;;;;1.71;67.59;102679.88;4195619;28;19925;-65
2023/02/28 02:13:15;;;;;;;;;;;;;;;1.67;67.72;102685.41;4194855;28;20015;-66
2023/02/28 02:15:17;;;;;;;;;;;;;;;1.65;67.81;102690.81;4194231;28;20357;-65
2023/02/28 02:17:21;;;;;;;;;;;;;;;1.64;67.98;102685.56;4195438;28;20023;-65
2023/02/28 02:19:31;;;;;;;;;;;;;;;1.62;68.17;102683.81;4195437;28;20019;-65
2023/02/28 02:21:38;;;;;;;;;;;;;;;1.63;68.36;102682.03;4196100;28;20019;-65
2023/02/28 02:23:52;;;;;;;;;;;;;;;1.63;68.25;102684.69;4202176;28;19954;-65
2023/02/28 02:25:55;;;;;;;;;;;;;;;1.66;68.31;102681.00;4201760;28;20060;-65
2023/02/28 02:28:00;;;;;;;;;;;;;;;1.66;68.17;102679.19;4210779;28;20035;-65
2023/02/28 02:30:11;;;;;;;;;;;;;;;1.67;68.35;102680.94;4209718;28;20015;-66
2023/02/28 02:32:19;;;;;;;;;;;;;;;1.65;68.28;102677.50;4195163;28;20366;-65
2023/02/28 02:34:28;;;;;;;;;;;;;;;1.65;68.34;102676.63;4203365;28;20370;-65
2023/02/28 02:36:34;;;;;;;;;;;;;;;1.64;68.21;102685.56;4194546;28;20019;-65
2023/02/28 02:38:37;;;;;;;;;;;;;;;1.58;68.38;102678.69;4202911;28;20011;-65
2023/02/28 02:40:44;;;;;;;;;;;;;;;1.53;68.47;102676.25;4195090;28;20573;-65
2023/02/28 02:42:51;;;;;;;;;;;;;;;1.51;68.76;102677.28;4196432;28;20031;-65
2023/02/28 02:44:54;;;;;;;;;;;;;;;1.51;68.76;102670.13;4202460;28;20023;-65
2023/02/28 02:46:59;;;;;;;;;;;;;;;1.48;68.85;102666.75;4186813;28;20027;-65
2023/02/28 02:49:04;;;;;;;;;;;;;;;1.49;68.87;102674.69;4194872;28;20097;-66
2023/02/28 02:51:11;;;;;;;;;;;;;;;1.48;68.86;102675.59;4194193;28;20048;-66
2023/02/28 02:53:13;;;;;;;;;;;;;;;1.44;68.74;102677.53;4196294;28;20022;-66
2023/02/28 02:55:15;;;;;;;;;;;;;;;1.42;68.57;102675.88;4195392;28;20369;-66
2023/02/28 02:57:18;;;;;;;;;;;;;;;1.36;68.75;102679.66;4202394;28;20016;-66
2023/02/28 02:59:21;;;;;;;;;;;;;;;1.32;68.91;102679.91;4192256;28;21370;-66
2023/02/28 03:01:28;;;;;;;;;;;;;;;1.28;69.13;102684.47;4195173;28;20024;-65
2023/02/28 03:03:30;;;;;;;;;;;;;;;1.22;69.18;102677.66;4195061;28;20016;-65
2023/02/28 03:05:34;;;;;;;;;;;;;;;1.18;69.47;102683.19;4186225;28;19967;-65
2023/02/28 03:07:38;;;;;;;;;;;;;;;1.16;69.48;102679.69;4195666;28;20027;-66
2023/02/28 03:09:39;;;;;;;;;;;;;;;1.17;69.45;102676.13;4185676;28;20036;-66
2023/02/28 03:11:42;;;;;;;;;;;;;;;1.13;69.39;102679.84;4185647;28;20023;-66
2023/02/28 03:13:51;;;;;;;;;;;;;;;1.09;69.57;102684.44;4193082;28;20385;-65
2023/02/28 03:15:59;;;;;;;;;;;;;;;1.06;69.88;102690.75;4201405;28;20111;-66
2023/02/28 03:18:03;;;;;;;;;;;;;;;1.06;70.02;102682.78;4192938;28;20283;-65
2023/02/28 03:20:06;;;;;;;;;;;;;;;1.07;69.85;102692.50;4209087;28;19928;-66
2023/02/28 03:22:15;;;;;;;;;;;;;;;1.07;69.98;102687.16;4194206;28;19928;-65
2023/02/28 03:24:19;;;;;;;;;;;;;;;1.05;70.23;102688.16;4193990;28;19959;-66
2023/02/28 03:26:22;;;;;;;;;;;;;;;1.04;69.98;102692.63;4188978;28;20024;-66
2023/02/28 03:28:28;;;;;;;;;;;;;;;1.03;70.12;102696.22;4192240;28;20027;-65
2023/02/28 03:30:33;;;;;;;;;;;;;;;1.00;70.13;102696.34;4194945;28;20015;-65
2023/02/28 03:32:35;;;;;;;;;;;;;;;0.97;70.50;102692.97;4194904;28;20023;-64
2023/02/28 03:34:38;;;;;;;;;;;;;;;0.94;70.53;102690.44;4194555;28;20552;-66
2023/02/28 03:36:43;;;;;;;;;;;;;;;0.94;70.48;102695.75;4202525;28;20011;-65
2023/02/28 03:38:46;;;;;;;;;;;;;;;0.89;70.59;102693.28;4194189;28;20019;-66
2023/02/28 03:40:50;;;;;;;;;;;;;;;0.88;70.55;102691.56;4193470;28;20421;-65
2023/02/28 03:42:53;;;;;;;;;;;;;;;0.87;70.68;102695.16;4196046;28;20019;-65
2023/02/28 03:44:55;;;;;;;;;;;;;;;0.84;70.68;102700.59;4194235;28;20020;-65
2023/02/28 03:46:58;;;;;;;;;;;;;;;0.80;70.83;102702.53;4195206;28;20130;-65
2023/02/28 03:49:01;;;;;;;;;;;;;;;0.75;70.82;102698.34;4195051;28;20031;-66
2023/02/28 03:51:04;;;;;;;;;;;;;;;0.71;71.09;102698.47;4194155;28;20012;-65
2023/02/28 03:53:07;;;;;;;;;;;;;;;0.70;71.32;102693.22;4194480;28;20023;-66
2023/02/28 03:55:10;;;;;;;;;;;;;;;0.69;71.29;102704.78;4194532;28;20411;-66
2023/02/28 03:57:16;;;;;;;;;;;;;;;0.69;71.41;102703.00;4195568;28;20015;-65
2023/02/28 03:59:19;;;;;;;;;;;;;;;0.71;71.22;102698.47;4194110;28;20092;-66
2023/02/28 04:01:21;;;;;;;;;;;;;;;0.69;71.36;102697.69;4194678;28;20015;-65
2023/02/28 04:03:23;;;;;;;;;;;;;;;0.66;71.52;102697.81;4193918;28;20368;-65
2023/02/28 04:05:25;;;;;;;;;;;;;;;0.64;71.45;102693.47;4193961;28;20031;-65
2023/02/28 04:07:29;;;;;;;;;;;;;;;0.62;71.38;102703.31;4193829;28;20016;-65
2023/02/28 04:09:31;;;;;;;;;;;;;;;0.59;71.59;102695.47;4194374;28;20091;-66
2023/02/28 04:11:34;;;;;;;;;;;;;;;0.55;71.67;102700.06;4193371;28;20011;-64
2023/02/28 04:13:37;;;;;;;;;;;;;;;0.55;71.80;102700.06;4194327;28;20367;-65
2023/02/28 04:15:39;;;;;;;;;;;;;;;0.53;71.67;102699.22;4192940;28;20019;-66
2023/02/28 04:17:43;;;;;;;;;;;;;;;0.50;71.87;102700.25;4193645;28;20032;-66
2023/02/28 04:19:45;;;;;;;;;;;;;;;0.48;71.94;102703.88;4193297;28;20019;-65
2023/02/28 04:21:47;;;;;;;;;;;;;;;0.48;71.95;102702.06;4194063;28;20015;-65
2023/02/28 04:23:49;;;;;;;;;;;;;;;0.51;71.88;102698.44;4193640;28;20020;-65
2023/02/28 04:25:51;;;;;;;;;;;;;;;0.49;72.02;102706.47;4184996;28;20017;-66
2023/02/28 04:27:53;;;;;;;;;;;;;;;0.46;71.96;102711.91;4194517;28;20038;-65
2023/02/28 04:29:57;;;;;;;;;;;;;;;0.44;72.01;102702.25;4193768;28;20008;-64
2023/02/28 04:31:59;;;;;;;;;;;;;;;0.45;71.97;102699.53;4193775;28;20031;-65
2023/02/28 04:34:01;;;;;;;;;;;;;;;0.43;72.02;102711.19;4195219;28;20020;-65
2023/02/28 04:36:04;;;;;;;;;;;;;;;0.40;71.89;102708.66;4194814;28;20023;-65
2023/02/28 04:38:06;;;;;;;;;;;;;;;0.40;72.23;102700.69;4196137;28;20011;-65
2023/02/28 04:40:09;;;;;;;;;;;;;;;0.42;72.22;102714.75;4196670;28;20441;-66
2023/02/28 04:42:11;;;;;;;;;;;;;;;0.41;72.20;102708.59;4197507;28;20058;-65
2023/02/28 04:44:13;;;;;;;;;;;;;;;0.37;71.89;102714.94;4196236;28;20379;-65
2023/02/28 04:46:18;;;;;;;;;;;;;;;0.34;71.89;102709.75;4197311;28;22263;-66
2023/02/28 04:48:19;;;;;;;;;;;;;;;0.31;72.27;102718.75;4197264;28;20011;-66
2023/02/28 04:50:21;;;;;;;;;;;;;;;0.29;72.09;102714.41;4195925;28;20503;-65
2023/02/28 04:52:23;;;;;;;;;;;;;;;0.27;71.94;102716.25;4197737;28;20028;-65
2023/02/28 04:54:25;;;;;;;;;;;;;;;0.24;72.27;102711.94;4196333;28;20107;-63
2023/02/28 04:56:27;;;;;;;;;;;;;;;0.20;72.09;102720.94;4196904;28;20015;-65
2023/02/28 04:58:29;;;;;;;;;;;;;;;0.16;72.45;102724.66;4194601;28;20621;-65
2023/02/28 05:00:31;;;;;;;;;;;;;;;0.14;72.24;102724.72;4196517;28;20126;-65
2023/02/28 05:02:36;;;;;;;;;;;;;;;0.12;72.56;102725.69;4196305;28;20027;-65
2023/02/28 05:04:38;;;;;;;;;;;;;;;0.11;72.65;102726.59;4196237;28;20015;-64
2023/02/28 05:06:40;;;;;;;;;;;;;;;0.06;72.70;102721.47;4197382;28;20007;-65
2023/02/28 05:08:42;;;;;;;;;;;;;;;0.03;72.71;102726.06;4196742;28;20015;-65
2023/02/28 05:10:44;;;;;;;;;;;;;;;0.00;72.98;102724.41;4196238;28;20884;-65
2023/02/28 05:12:47;;;;;;;;;;;;;;;-0.03;73.03;102719.22;4197086;28;20015;-65
2023/02/28 05:14:49;;;;;;;;;;;;;;;-0.02;73.00;102724.47;4197227;28;20024;-65
2023/02/28 05:16:51;;;;;;;;;;;;;;;-0.05;73.09;102731.66;4192887;28;20104;-66
2023/02/28 05:18:55;;;;;;;;;;;;;;;-0.03;73.16;102730.69;4195399;28;20075;-65
2023/02/28 05:20:57;;;;;;;;;;;;;;;-0.02;73.28;102739.50;4196490;28;20371;-66
2023/02/28 05:22:59;;;;;;;;;;;;;;;-0.01;73.27;102730.63;4197086;28;20016;-65
2023/02/28 05:25:01;;;;;;;;;;;;;;;0.02;73.27;102732.28;4195784;28;20003;-65
2023/02/28 05:27:03;;;;;;;;;;;;;;;-0.04;73.26;102720.13;4195682;28;20475;-65
2023/02/28 05:29:05;;;;;;;;;;;;;;;-0.06;73.34;102729.94;4205043;28;20018;-65
2023/02/28 05:31:07;;;;;;;;;;;;;;;-0.04;73.16;102733.41;4195328;28;20019;-66
2023/02/28 05:33:11;;;;;;;;;;;;;;;-0.04;73.24;102730.75;4194755;28;20019;-66
2023/02/28 05:35:14;;;;;;;;;;;;;;;-0.07;72.91;102736.19;4192194;28;20441;-66
2023/02/28 05:37:16;;;;;;;;;;;;;;;-0.12;73.08;102735.50;4195468;28;20020;-66
2023/02/28 05:39:21;;;;;;;;;;;;;;;-0.12;73.22;102730.19;4193920;28;20030;-66
2023/02/28 05:41:23;;;;;;;;;;;;;;;-0.13;73.12;102739.06;4195620;28;20023;-66
2023/02/28 05:43:25;;;;;;;;;;;;;;;-0.17;73.08;102742.75;4193271;28;20517;-65
2023/02/28 05:45:28;;;;;;;;;;;;;;;-0.20;73.25;102743.75;4194925;28;20027;-65
2023/02/28 05:47:30;;;;;;;;;;;;;;;-0.19;73.45;102741.03;4196564;28;20051;-66
2023/02/28 05:49:32;;;;;;;;;;;;;;;-0.20;73.38;102743.75;4192110;28;20437;-65
2023/02/28 05:51:36;;;;;;;;;;;;;;;-0.17;73.49;102745.41;4194259;28;20356;-65
2023/02/28 05:53:38;;;;;;;;;;;;;;;-0.17;73.50;102742.75;4193679;28;20030;-66
2023/02/28 05:55:40;;;;;;;;;;;;;;;-0.19;73.44;102740.16;4193087;28;20321;-66
2023/02/28 05:57:43;;;;;;;;;;;;;;;-0.23;73.49;102749.19;4193894;28;20027;-65
2023/02/28 05:59:45;;;;;;;;;;;;;;;-0.21;73.68;102753.50;4194867;28;20808;-66
2023/02/28 06:01:48;;;;;;;;;;;;;;;-0.22;73.61;102753.53;4193283;28;20015;-65
2023/02/28 06:03:50;;;;;;;;;;;;;;;-0.24;73.59;102748.28;4195264;28;20023;-65
2023/02/28 06:05:52;;;;;;;;;;;;;;;-0.25;73.64;102756.31;4193582;28;20072;-62
2023/02/28 06:07:56;;;;;;;;;;;;;;;-0.26;73.76;102757.25;4196029;28;20107;-66
2023/02/28 06:09:58;;;;;;;;;;;;;;;-0.22;73.99;102761.50;4191675;28;20018;-66
2023/02/28 06:12:00;;;;;;;;;;;;;;;-0.21;74.01;102753.50;4193595;28;20365;-63
2023/02/28 06:14:02;;;;;;;;;;;;;;;-0.19;73.80;102750.78;4192759;28;20020;-63
2023/02/28 06:16:04;;;;;;;;;;;;;;;-0.22;73.92;102749.13;4193305;28;20018;-65
2023/02/28 06:18:06;;;;;;;;;;;;;;;-0.23;73.90;102752.69;4194158;28;20055;-63
2023/02/28 06:20:09;;;;;;;;;;;;;;;-0.21;73.97;102760.59;4194236;28;20054;-65
2023/02/28 06:22:11;;;;;;;;;;;;;;;-0.20;73.83;102763.19;4192362;28;20019;-65
2023/02/28 06:24:14;;;;;;;;;;;;;;;-0.21;73.93;102766.75;4194377;28;20015;-65
2023/02/28 06:26:16;;;;;;;;;;;;;;;-0.22;73.68;102759.75;4192934;28;20426;-63
2023/02/28 06:28:18;;;;;;;;;;;;;;;-0.22;73.84;102758.84;4193770;28;20007;-64
2023/02/28 06:30:23;;;;;;;;;;;;;;;-0.26;74.09;102760.78;4193834;28;20379;-65
2023/02/28 06:32:25;;;;;;;;;;;;;;;-0.20;74.14;102770.31;4195179;28;20351;-63
2023/02/28 06:34:27;;;;;;;;;;;;;;;-0.20;74.10;102776.47;4195302;28;20026;-64
2023/02/28 06:36:29;;;;;;;;;;;;;;;-0.22;74.00;102781.00;4192781;28;20027;-63
2023/02/28 06:38:31;;;;;;;;;;;;;;;-0.25;74.20;102772.25;4195800;28;20035;-65
2023/02/28 06:40:35;;;;;;;;;;;;;;;-0.25;74.41;102783.75;4194802;28;20019;-63
2023/02/28 06:42:38;;;;;;;;;;;;;;;-0.21;74.47;102780.03;4202536;28;20024;-65
2023/02/28 06:44:42;;;;;;;;;;;;;;;-0.16;74.75;102782.53;4193359;28;20015;-65
2023/02/28 06:46:45;;;;;;;;;;;;;;;-0.10;74.58;102784.97;4195226;28;20047;-65
2023/02/28 06:48:47;;;;;;;;;;;;;;;-0.06;74.42;102785.72;4194182;28;20027;-64
2023/02/28 06:50:49;;;;;;;;;;;;;;;-0.06;74.45;102781.28;4194058;28;20011;-64
2023/02/28 06:52:53;;;;;;;;;;;;;;;-0.02;74.41;102784.69;4193784;28;20466;-64
2023/02/28 06:54:59;;;;;;;;;;;;;;;0.00;74.37;102785.50;4195061;28;20684;-65
2023/02/28 06:57:03;;;;;;;;;;;;;;;0.04;74.27;102788.91;4194692;28;20031;-65
2023/02/28 06:59:05;;;;;;;;;;;;;;;0.05;74.41;102794.16;4194370;28;20027;-64
2023/02/28 07:01:07;;;;;;;;;;;;;;;0.06;74.39;102797.66;4194733;28;20035;-63
2023/02/28 07:03:09;;;;;;;;;;;;;;;0.10;74.63;102788.66;4195073;28;20019;-63
2023/02/28 07:05:11;;;;;;;;;;;;;;;0.16;74.62;102791.94;4194811;28;20012;-64
2023/02/28 07:07:13;;;;;;;;;;;;;;;0.22;74.58;102793.53;4193466;28;20019;-65
2023/02/28 07:09:15;;;;;;;;;;;;;;;0.26;74.49;102792.47;4192939;28;20107;-63
2023/02/28 07:11:17;;;;;;;;;;;;;;;0.31;74.39;102803.78;4194254;28;20023;-65
2023/02/28 07:13:21;;;;;;;;;;;;;;;0.37;74.23;102807.13;4195175;28;20015;-64
2023/02/28 07:15:23;;;;;;;;;;;;;;;0.44;74.12;102800.63;4192462;28;20462;-68
2023/02/28 07:17:25;;;;;;;;;;;;;;;0.48;73.95;102799.59;4186835;28;20478;-65
2023/02/28 07:19:27;;;;;;;;;;;;;;;0.53;73.79;102793.19;4194922;28;20019;-65
2023/02/28 07:21:29;;;;;;;;;;;;;;;0.59;73.75;102794.72;4194860;28;20333;-64
2023/02/28 07:23:31;;;;;;;;;;;;;;;0.66;73.53;102798.88;4194022;28;20028;-65
2023/02/28 07:25:33;;;;;;;;;;;;;;;0.72;73.32;102800.38;4194341;28;20008;-63
2023/02/28 07:27:38;;;;;;;;;;;;;;;0.80;73.01;102805.41;4194668;28;20020;-64
2023/02/28 07:29:41;;;;;;;;;;;;;;;0.84;72.71;102799.03;4201998;28;20023;-64
2023/02/28 07:31:43;;;;;;;;;;;;;;;0.89;72.58;102803.25;4194224;28;20047;-65
2023/02/28 07:33:45;;;;;;;;;;;;;;;0.94;72.11;102789.75;4194643;28;20023;-65
2023/02/28 07:35:47;;;;;;;;;;;;;;;0.99;71.74;102801.06;4194209;28;20446;-65
2023/02/28 07:37:49;;;;;;;;;;;;;;;1.05;71.42;102805.25;4195595;28;20047;-66
2023/02/28 07:39:52;;;;;;;;;;;;;;;1.11;71.30;102798.81;4193326;28;20019;-65
2023/02/28 07:41:54;;;;;;;;;;;;;;;1.16;71.08;102802.13;4193709;28;20023;-64
2023/02/28 07:44:03;;;;;;;;;;;;;;;1.21;70.84;102805.50;4202586;28;20031;-63
2023/02/28 07:46:07;;;;;;;;;;;;;;;1.29;70.71;102805.16;4194993;28;20012;-64
2023/02/28 07:48:09;;;;;;;;;;;;;;;1.34;70.30;102801.34;4193390;28;20020;-64
2023/02/28 07:50:12;;;;;;;;;;;;;;;1.41;70.14;102794.84;4192669;28;20023;-65
2023/02/28 07:52:14;;;;;;;;;;;;;;;1.47;69.78;102801.69;4193880;28;20023;-62
2023/02/28 07:54:16;;;;;;;;;;;;;;;1.53;69.73;102800.56;4194710;28;20585;-65
2023/02/28 07:56:18;;;;;;;;;;;;;;;1.58;69.40;102804.75;4195184;28;20557;-64
2023/02/28 07:58:20;;;;;;;;;;;;;;;1.65;69.28;102802.69;4195540;28;20015;-65
2023/02/28 08:00:23;;;;;;;;;;;;;;;1.72;68.94;102811.25;4193438;28;19970;-64
2023/02/28 08:02:26;;;;;;;;;;;;;;;1.77;68.60;102809.25;4194455;28;19960;-65
2023/02/28 08:04:28;;;;;;;;;;;;;;;1.83;68.42;102810.78;4194355;28;20008;-64
2023/02/28 08:06:30;;;;;;;;;;;;;;;1.87;68.18;102805.25;4194981;28;20015;-65
2023/02/28 08:08:32;;;;;;;;;;;;;;;1.92;67.93;102808.56;4195104;28;20039;-64
2023/02/28 08:10:34;;;;;;;;;;;;;;;1.98;67.58;102807.44;4194026;28;20051;-65
2023/02/28 08:12:36;;;;;;;;;;;;;;;2.05;67.41;102811.53;4198190;28;20023;-64
2023/02/28 08:14:39;;;;;;;;;;;;;;;2.12;67.06;102814.78;4198453;28;20091;-64
2023/02/28 08:16:42;;;;;;;;;;;;;;;2.16;66.44;102809.25;4198732;28;20375;-63
2023/02/28 08:18:46;;;;;;;;;;;;;;;2.25;66.45;102807.94;4196573;28;20026;-65
2023/02/28 08:20:48;;;;;;;;;;;;;;;2.31;66.37;102812.13;4197443;28;20003;-64
2023/02/28 08:22:50;;;;;;;;;;;;;;;2.37;66.07;102816.28;4189182;28;20032;-64
2023/02/28 08:24:54;;;;;;;;;;;;;;;2.43;66.37;102816.88;4188895;28;20012;-64
2023/02/28 08:26:56;;;;;;;;;;;;;;;2.51;66.50;102808.53;4198427;28;20027;-61
2023/02/28 08:28:58;;;;;;;;;;;;;;;2.62;66.04;102805.34;4196760;28;20016;-65
2023/02/28 08:31:00;;;;;;;;;;;;;;;2.70;65.76;102813.81;4196847;28;20268;-65
2023/02/28 08:33:02;;;;;;;;;;;;;;;2.77;65.84;102811.72;4198048;28;20027;-65
2023/02/28 08:35:06;;;;;;;;;;;;;;;2.85;66.08;102810.41;4196400;28;20008;-64
2023/02/28 08:37:08;;;;;;;;;;;;;;;2.95;65.89;102808.13;4198070;28;20026;-65
2023/02/28 08:39:10;;;;;;;;;;;;;;;3.06;65.68;102816.47;4198237;28;20027;-63
2023/02/28 08:41:12;;;;;;;;;;;;;;;3.15;65.67;102815.16;4196899;28;20019;-64
2023/02/28 08:43:14;;;;;;;;;;;;;;;3.23;65.87;102810.28;4189059;28;20035;-64
2023/02/28 08:45:16;;;;;;;;;;;;;;;3.28;65.56;102796.69;4197398;28;20024;-65
2023/02/28 08:47:19;;;;;;;;;;;;;;;3.46;65.51;102812.72;4197185;28;20019;-65
2023/02/28 08:49:21;;;;;;;;;;;;;;;3.55;64.90;102820.25;4197374;28;20020;-64
2023/02/28 08:51:26;;;;;;;;;;;;;;;3.66;64.92;102811.66;4198075;28;20022;-64
2023/02/28 08:53:28;;;;;;;;;;;;;;;3.76;65.02;102805.75;4198236;28;20044;-64
2023/02/28 08:55:31;;;;;;;;;;;;;;;3.89;64.87;102810.44;4197061;28;20390;-65
2023/02/28 08:57:33;;;;;;;;;;;;;;;4.01;64.30;102808.91;4197233;28;20019;-64
2023/02/28 08:59:35;;;;;;;;;;;;;;;4.11;63.99;102804.81;4198149;28;20109;-65
2023/02/28 09:01:37;;;;;;;;;;;;;;;4.25;64.37;102807.56;4197232;28;20018;-63
2023/02/28 09:03:39;;;;;;;;;;;;;;;4.39;64.13;102805.91;4198009;28;20012;-64
2023/02/28 09:05:41;;;;;;;;;;;;;;;4.53;63.74;102811.38;4196972;28;20007;-62
2023/02/28 09:07:45;;;;;;;;;;;;;;;4.65;63.42;102801.78;4197127;28;20011;-64
2023/02/28 09:09:54;;;;;;;;;;;;;;;4.78;62.99;102805.50;4197360;28;20597;-63
2023/02/28 09:11:56;;;;;;;;;;;;;;;4.91;62.75;102807.47;4197682;28;20720;-62
2023/02/28 09:13:58;;;;;;;;;;;;;;;5.06;62.77;102811.91;4196265;28;20007;-65
2023/02/28 09:16:01;;;;;;;;;;;;;;;5.22;62.35;102801.16;4196924;28;20023;-65
2023/02/28 09:18:04;;;;;;;;;;;;;;;5.37;62.21;102805.56;4198626;28;20015;-65
2023/02/28 09:20:08;;;;;;;;;;;;;;;5.50;61.00;102811.09;4196478;28;20019;-64
2023/02/28 09:22:11;;;;;;;;;;;;;;;5.59;59.82;102810.53;4197016;28;20016;-66
2023/02/28 09:24:15;;;;;;;;;;;;;;;5.63;60.13;102803.16;4197853;28;20470;-65
2023/02/28 09:26:17;;;;;;;;;;;;;;;5.70;59.78;102800.94;4196812;28;21481;-65
2023/02/28 09:28:19;;;;;;;;;;;;;;;5.85;59.60;102802.69;4195570;28;20015;-64
2023/02/28 09:30:21;;;;;;;;;;;;;;;5.99;57.30;102809.91;4197218;28;20015;-65
2023/02/28 09:32:24;;;;;;;;;;;;;;;6.03;57.87;102807.88;4196233;28;20122;-65
2023/02/28 09:34:27;;;;;;;;;;;;;;;6.06;58.13;102805.00;4197182;28;20031;-65
2023/02/28 09:36:29;;;;;;;;;;;;;;;6.12;57.68;102810.00;4196166;28;20012;-65
2023/02/28 09:38:31;;;;;;;;;;;;;;;6.21;56.82;102813.91;4196714;28;20030;-65
2023/02/28 09:40:36;;;;;;;;;;;;;;;6.27;56.58;102811.69;4196696;28;20386;-64
2023/02/28 09:42:38;;;;;;;;;;;;;;;6.31;56.17;102807.84;4197247;28;20362;-64
2023/02/28 09:44:41;;;;;;;;;;;;;;;6.31;55.97;102812.34;4186859;28;20018;-63
2023/02/28 09:46:44;;;;;;;;;;;;;;;6.39;55.81;102803.81;4196133;28;20032;-64
2023/02/28 09:48:47;;;;;;;;;;;;;;;6.44;55.66;102804.38;4195612;28;20023;-62
2023/02/28 09:50:49;;;;;;;;;;;;;;;6.52;54.95;102799.38;4194985;28;20007;-63
2023/02/28 09:52:51;;;;;;;;;;;;;;;6.58;55.25;102807.06;4195216;28;20023;-62
2023/02/28 09:54:53;;;;;;;;;;;;;;;6.67;54.45;102802.88;4195348;28;20493;-62
2023/02/28 09:56:58;;;;;;;;;;;;;;;6.74;53.21;102808.69;4195807;28;20014;-63
2023/02/28 09:59:01;;;;;;;;;;;;;;;6.65;54.09;102800.28;4195779;28;20035;-62
2023/02/28 10:01:04;;;;;;;;;;;;;;;6.64;53.58;102803.94;4195504;28;20015;-64
2023/02/28 10:03:30;;;;;;;;;;;;;;;6.60;54.84;102806.91;4195791;28;20716;-63
2023/02/28 10:05:34;;;;;;;;;;;;;;;6.65;54.74;102802.97;4178422;28;20550;-64
2023/02/28 10:07:44;;;;;;;;;;;;;;;6.73;54.71;102798.94;4196019;28;20031;-64
2023/02/28 10:09:46;;;;;;;;;;;;;;;6.75;54.20;102797.84;4195708;28;20359;-65
2023/02/28 10:11:48;;;;;;;;;;;;;;;6.84;54.21;102805.31;4196456;28;20023;-62
2023/02/28 10:14:01;;;;;;;;;;;;;;;6.87;53.74;102801.56;4194544;28;20000;-63
2023/02/28 10:16:03;;;;;;;;;;;;;;;6.88;53.69;102805.09;4195807;28;20363;-64
2023/02/28 10:18:06;;;;;;;;;;;;;;;6.83;54.05;102805.41;4196002;28;20023;-65
2023/02/28 10:20:11;;;;;;;;;;;;;;;6.83;53.15;102802.72;4194410;28;20015;-64
2023/02/28 10:22:14;;;;;;;;;;;;;;;6.84;54.57;102793.72;4195851;28;20019;-65
2023/02/28 10:24:19;;;;;;;;;;;;;;;6.90;54.62;102798.69;4195351;28;20011;-63
2023/02/28 10:26:21;;;;;;;;;;;;;;;6.95;54.42;102796.53;4194694;28;20021;-64
2023/02/28 10:28:25;;;;;;;;;;;;;;;7.02;54.47;102787.13;4194560;28;20024;-63
2023/02/28 10:30:28;;;;;;;;;;;;;;;7.10;54.14;102800.03;4196215;28;20079;-64
2023/02/28 10:32:31;;;;;;;;;;;;;;;7.22;53.97;102798.31;4203427;28;20377;-65
2023/02/28 10:34:33;;;;;;;;;;;;;;;7.36;53.22;102794.69;4195031;28;20035;-65
2023/02/28 10:36:35;;;;;;;;;;;;;;;7.48;53.55;102801.91;4194887;28;20583;-65
2023/02/28 10:38:38;;;;;;;;;;;;;;;7.56;53.13;102801.38;4195474;28;20015;-64
2023/02/28 10:40:40;;;;;;;;;;;;;;;7.63;53.28;102805.34;4195816;28;20023;-64